Time;durP1;ratioP1;P1;durP2;ratioP2;P2;SDS_P1;SDS_P2;PMS_P1;PMS_P2;Temp;Humidity;BMP_temperature;BMP_pressure;BME280_temperature;BME280_humidity;BME280_pressure;Samples;Min_cycle;Max_cycle;Signal;HPM_P1;HPM_P2
2023/10/11 00:00:37;;;;;;;3.80;1.50;;;;;;;21.74;45.16;100468.56;4617149;27;20035;-61
2023/10/11 00:02:47;;;;;;;2.42;1.50;;;;;;;21.72;45.20;100468.09;4617171;27;20027;-61
2023/10/11 00:04:58;;;;;;;1.75;1.40;;;;;;;21.75;45.33;100463.66;4619074;27;20079;-61
2023/10/11 00:07:09;;;;;;;2.35;1.58;;;;;;;21.75;44.85;100463.66;4616735;27;20052;-61
2023/10/11 00:09:24;;;;;;;1.88;1.42;;;;;;;21.71;45.50;100460.72;4617390;27;20031;-62
2023/10/11 00:11:38;;;;;;;1.90;1.30;;;;;;;21.74;45.27;100465.69;4617112;27;20035;-62
2023/10/11 00:13:49;;;;;;;2.10;1.40;;;;;;;21.75;45.25;100463.66;4616610;27;20040;-62
2023/10/11 00:16:08;;;;;;;1.95;1.30;;;;;;;21.74;45.24;100462.81;4617692;27;20031;-62
2023/10/11 00:18:27;;;;;;;1.50;1.23;;;;;;;21.71;45.02;100460.72;4622849;27;20138;-62
2023/10/11 00:22:51;;;;;;;2.47;1.65;;;;;;;21.74;45.04;100464.88;4616558;27;22404;-62
2023/10/11 00:25:01;;;;;;;1.80;1.45;;;;;;;21.74;44.98;100462.81;4616339;27;20039;-61
2023/10/11 00:27:12;;;;;;;2.78;1.60;;;;;;;21.72;44.94;100459.50;4617449;27;20039;-61
2023/10/11 00:29:22;;;;;;;2.67;1.35;;;;;;;21.73;45.01;100449.69;4600575;27;20035;-61
2023/10/11 00:31:33;;;;;;;3.30;1.38;;;;;;;21.73;44.65;100451.72;4605781;27;20029;-61
2023/10/11 00:33:44;;;;;;;2.85;1.63;;;;;;;21.71;44.88;100442.63;4616006;27;20075;-61
2023/10/11 00:35:55;;;;;;;2.15;1.50;;;;;;;21.74;44.99;100454.22;4617238;27;20070;-61
2023/10/11 00:38:05;;;;;;;2.30;1.30;;;;;;;21.74;45.04;100456.28;4615710;27;20084;-61
2023/10/11 00:40:24;;;;;;;2.33;1.50;;;;;;;21.73;44.93;100449.69;4615524;27;20042;-61
2023/10/11 00:42:35;;;;;;;2.38;1.40;;;;;;;21.73;44.83;100446.81;4616234;27;20184;-61
2023/10/11 00:44:47;;;;;;;1.88;1.20;;;;;;;21.73;45.02;100443.94;4616538;27;20103;-61
2023/10/11 00:46:59;;;;;;;1.83;1.35;;;;;;;21.60;44.72;100419.44;4615652;27;20918;-61
2023/10/11 00:49:13;;;;;;;1.73;1.30;;;;;;;21.72;45.03;100445.13;4631251;27;20034;-61
2023/10/11 00:51:29;;;;;;;3.00;1.33;;;;;;;21.72;45.05;100439.38;4617710;27;20091;-61
2023/10/11 00:53:40;;;;;;;1.70;1.40;;;;;;;21.70;44.70;100430.34;4616326;27;20039;-61
2023/10/11 00:55:51;;;;;;;2.10;1.50;;;;;;;21.70;44.93;100438.94;4617019;27;20019;-61
2023/10/11 00:58:03;;;;;;;2.38;1.40;;;;;;;21.72;45.18;100442.25;4600237;27;20035;-61
2023/10/11 01:00:16;;;;;;;2.47;1.63;;;;;;;21.73;45.12;100435.31;4632054;27;20023;-61
2023/10/11 01:02:27;;;;;;;1.90;1.40;;;;;;;21.72;44.73;100438.56;4595417;27;20524;-61
2023/10/11 01:04:39;;;;;;;2.97;1.55;;;;;;;21.73;45.27;100435.31;4616146;27;20483;-61
2023/10/11 01:06:49;;;;;;;2.28;1.30;;;;;;;21.73;45.16;100429.56;4616104;27;20039;-61
2023/10/11 01:09:04;;;;;;;2.55;1.70;;;;;;;21.72;45.18;100433.63;4617308;27;20391;-61
2023/10/11 01:11:15;;;;;;;2.33;1.83;;;;;;;21.73;45.61;100434.47;4633539;27;20089;-61
2023/10/11 01:13:25;;;;;;;1.75;1.10;;;;;;;21.69;45.53;100422.91;4616599;27;20030;-61
2023/10/11 01:15:35;;;;;;;2.42;1.52;;;;;;;21.72;45.64;100430.75;4615117;27;20118;-61
2023/10/11 01:17:46;;;;;;;3.08;1.50;;;;;;;21.71;45.43;100420.50;4616243;27;20085;-61
2023/10/11 01:19:56;;;;;;;2.53;1.50;;;;;;;21.68;45.71;100421.25;4614166;27;20073;-61
2023/10/11 01:22:09;;;;;;;2.00;1.40;;;;;;;21.68;45.47;100418.38;4615089;27;20102;-61
2023/10/11 01:24:19;;;;;;;2.15;1.50;;;;;;;21.70;45.73;100421.72;4617413;27;20091;-61
2023/10/11 01:26:31;;;;;;;2.30;1.42;;;;;;;21.72;45.45;100421.34;4616861;27;20572;-61
2023/10/11 01:28:46;;;;;;;1.83;1.25;;;;;;;21.72;45.99;100424.22;4616381;27;20031;-61
2023/10/11 01:30:58;;;;;;;;;;;;;;;21.72;46.05;100416.41;4616251;27;20105;-61
2023/10/11 01:33:08;;;;;;;2.20;1.40;;;;;;;21.71;46.10;100417.63;4613986;27;20460;-61
2023/10/11 01:35:19;;;;;;;2.45;1.40;;;;;;;21.69;46.22;100414.28;4614409;27;20039;-61
2023/10/11 01:37:36;;;;;;;3.83;1.63;;;;;;;21.72;45.77;100412.72;4615111;27;20054;-61
2023/10/11 01:39:48;;;;;;;;;;;;;;;21.72;46.05;100409.84;4618038;27;20028;-61
2023/10/11 01:41:59;;;;;;;1.83;1.48;;;;;;;21.58;46.35;100390.25;4620793;27;20009;-61
2023/10/11 01:44:09;;;;;;;2.55;1.40;;;;;;;21.71;46.20;100409.00;4615287;27;20480;-61
2023/10/11 01:46:27;;;;;;;2.10;1.52;;;;;;;21.71;46.28;100409.00;4615558;27;20407;-61
2023/10/11 01:48:37;;;;;;;2.45;1.58;;;;;;;21.65;46.18;100390.41;4612731;27;20890;-61
2023/10/11 01:50:48;;;;;;;2.80;1.50;;;;;;;21.71;45.86;100396.66;4600284;27;20030;-61
2023/10/11 01:52:59;;;;;;;2.20;1.63;;;;;;;21.70;46.48;100393.00;4616345;27;20031;-61
2023/10/11 01:55:16;;;;;;;1.80;1.40;;;;;;;21.69;46.51;100397.06;4617097;27;20031;-61
2023/10/11 01:57:26;;;;;;;;;;;;;;;21.71;46.30;100397.50;4615671;27;20042;-61
2023/10/11 01:59:37;;;;;;;3.28;1.52;;;;;;;21.70;46.16;100395.84;4614986;27;19926;-61
2023/10/11 02:01:58;;;;;;;2.33;1.50;;;;;;;21.70;46.47;100390.13;4615443;27;20027;-61
2023/10/11 02:04:17;;;;;;;2.92;1.40;;;;;;;21.70;46.48;100390.13;4615958;27;20539;-61
2023/10/11 02:06:34;;;;;;;2.28;1.50;;;;;;;21.70;46.34;100383.53;4621155;27;20039;-61
2023/10/11 02:08:45;;;;;;;2.17;1.48;;;;;;;21.68;46.50;100381.03;4615766;27;20736;-61
2023/10/11 02:10:55;;;;;;;3.00;1.63;;;;;;;21.69;46.79;100381.88;4615368;27;20035;-61
2023/10/11 02:13:09;;;;;;;2.47;1.75;;;;;;;21.69;46.82;100388.44;4617609;27;20076;-61
2023/10/11 02:15:28;;;;;;;2.70;1.40;;;;;;;21.68;46.36;100380.19;4615019;27;20031;-61
2023/10/11 02:17:39;;;;;;;2.28;1.45;;;;;;;21.69;46.33;100382.69;4615496;27;20913;-61
2023/10/11 02:19:53;;;;;;;2.03;1.50;;;;;;;21.69;46.57;100382.69;4615998;27;20055;-61
2023/10/11 02:22:03;;;;;;;1.83;1.30;;;;;;;21.69;46.65;100394.19;4615171;27;20102;-61
2023/10/11 02:24:17;;;;;;;2.30;1.58;;;;;;;21.63;46.99;100372.72;4616000;27;20923;-61
2023/10/11 02:26:32;;;;;;;2.17;1.50;;;;;;;21.68;46.76;100381.03;4612775;27;20046;-61
2023/10/11 02:28:44;;;;;;;3.08;1.58;;;;;;;21.70;46.50;100393.00;4615163;27;20032;-61
2023/10/11 02:30:55;;;;;;;2.13;1.35;;;;;;;21.65;46.57;100381.81;4616340;27;20036;-61
2023/10/11 02:33:07;;;;;;;2.65;1.60;;;;;;;21.67;46.36;100379.38;4614534;27;20032;-61
2023/10/11 02:35:19;;;;;;;2.63;1.45;;;;;;;21.70;46.50;100383.53;4615090;27;20024;-61
2023/10/11 02:37:34;;;;;;;2.60;1.55;;;;;;;21.69;46.65;100382.69;4614968;27;20086;-61
2023/10/11 02:39:46;;;;;;;2.83;1.48;;;;;;;21.68;46.95;100377.31;4614775;27;21123;-61
2023/10/11 02:41:57;;;;;;;3.17;1.50;;;;;;;21.64;46.77;100365.78;4615530;27;20035;-62
2023/10/11 02:44:08;;;;;;;2.35;1.60;;;;;;;21.63;46.69;100378.47;4615026;27;20110;-61
2023/10/11 02:46:24;;;;;;;2.67;1.40;;;;;;;21.65;46.79;100369.47;4602574;27;20035;-61
2023/10/11 02:48:35;;;;;;;2.50;1.67;;;;;;;21.70;46.74;100386.41;4615804;27;20126;-62
2023/10/11 02:50:47;;;;;;;2.58;1.90;;;;;;;21.69;46.86;100382.69;4614494;27;20114;-62
2023/10/11 02:53:05;;;;;;;3.05;1.70;;;;;;;21.62;46.66;100370.25;4615299;27;20023;-62
2023/10/11 02:55:21;;;;;;;3.17;1.85;;;;;;;21.68;46.50;100381.03;4615654;27;20039;-62
2023/10/11 02:57:32;;;;;;;;;;;;;;;21.69;46.62;100382.69;4616179;27;20109;-62
2023/10/11 02:59:44;;;;;;;2.42;1.55;;;;;;;21.69;46.69;100376.13;4613815;27;19915;-62
2023/10/11 03:02:00;;;;;;;2.28;1.65;;;;;;;21.69;47.01;100374.06;4630149;27;20076;-61
2023/10/11 03:04:16;;;;;;;2.47;1.45;;;;;;;21.69;46.95;100376.13;4614703;27;20088;-63
2023/10/11 03:06:28;;;;;;;2.80;1.65;;;;;;;21.68;46.76;100369.56;4615666;27;20503;-61
2023/10/11 03:08:40;;;;;;;2.22;1.45;;;;;;;21.66;46.95;100369.09;4602845;27;20031;-63
2023/10/11 03:10:53;;;;;;;2.47;1.60;;;;;;;21.68;47.11;100375.28;4614811;27;20034;-61
2023/10/11 03:13:04;;;;;;;2.85;1.67;;;;;;;21.67;47.15;100367.06;4605343;27;20125;-61
2023/10/11 03:15:19;;;;;;;2.33;1.58;;;;;;;21.66;46.84;100369.09;4617491;27;20053;-61
2023/10/11 03:17:29;;;;;;;2.58;1.50;;;;;;;21.67;46.79;100376.53;4618132;27;20027;-61
2023/10/11 03:19:43;;;;;;;3.08;1.60;;;;;;;21.68;46.88;100381.03;4617725;27;20039;-61
2023/10/11 03:21:54;;;;;;;2.85;1.60;;;;;;;21.64;46.73;100370.69;4618529;27;20091;-61
2023/10/11 03:24:05;;;;;;;3.53;1.73;;;;;;;21.65;46.71;100369.47;4616219;27;20035;-61
2023/10/11 03:26:31;;;;;;;2.25;1.60;;;;;;;21.67;46.96;100367.91;4617034;27;20043;-61
2023/10/11 03:28:41;;;;;;;2.70;1.75;;;;;;;21.65;46.82;100358.81;4618616;27;20035;-61
2023/10/11 03:30:53;;;;;;;1.92;1.35;;;;;;;21.63;46.91;100364.09;4617238;27;20019;-61
2023/10/11 03:33:06;;;;;;;2.78;1.65;;;;;;;21.66;47.01;100371.97;4605909;27;20215;-61
2023/10/11 03:35:18;;;;;;;2.88;1.70;;;;;;;21.66;46.99;100371.97;4618093;27;20032;-61
2023/10/11 03:37:29;;;;;;;2.47;1.70;;;;;;;21.67;47.14;100373.66;4618190;27;20138;-61
2023/10/11 03:39:40;;;;;;;2.38;1.60;;;;;;;21.65;47.16;100370.31;4617398;27;20118;-61
2023/10/11 03:41:51;;;;;;;2.20;1.67;;;;;;;21.67;47.35;100367.91;4615179;27;20748;-61
2023/10/11 03:44:09;;;;;;;2.70;1.40;;;;;;;21.66;46.74;100369.09;4618055;27;20027;-62
2023/10/11 03:46:25;;;;;;;2.90;2.00;;;;;;;21.66;46.83;100365.41;4616860;27;20113;-61
2023/10/11 03:48:44;;;;;;;2.30;1.70;;;;;;;21.65;46.79;100364.56;4604530;27;21141;-62
2023/10/11 03:50:55;;;;;;;2.55;1.60;;;;;;;21.60;46.93;100349.66;4618496;27;20050;-61
2023/10/11 03:53:10;;;;;;;2.65;1.58;;;;;;;21.66;47.16;100354.72;4617456;27;20027;-61
2023/10/11 03:55:21;;;;;;;2.70;1.70;;;;;;;21.65;46.89;100364.56;4616925;27;20089;-61
2023/10/11 03:57:41;;;;;;;3.03;1.60;;;;;;;21.67;46.88;100361.31;4615655;27;20081;-61
2023/10/11 03:59:52;;;;;;;2.85;1.70;;;;;;;21.63;46.96;100349.75;4617440;27;20038;-61
2023/10/11 04:02:02;;;;;;;2.78;1.80;;;;;;;21.63;46.71;100357.53;4617554;27;20039;-61
2023/10/11 04:04:13;;;;;;;2.63;1.70;;;;;;;21.65;46.68;100358.81;4616062;27;20059;-61
2023/10/11 04:06:23;;;;;;;2.17;1.30;;;;;;;21.65;47.23;100358.81;4616581;27;20035;-62
2023/10/11 04:08:39;;;;;;;2.30;1.60;;;;;;;21.64;46.54;100353.47;4617918;27;20439;-61
2023/10/11 04:10:49;;;;;;;3.15;1.95;;;;;;;21.64;46.64;100362.91;4617398;27;20817;-61
2023/10/11 04:13:00;;;;;;;2.28;1.65;;;;;;;21.62;46.78;100361.63;4616954;27;20023;-61
2023/10/11 04:15:24;;;;;;;2.95;1.70;;;;;;;21.64;46.79;100362.91;4616430;27;20031;-61
2023/10/11 04:17:38;;;;;;;3.40;1.70;;;;;;;21.65;46.51;100357.97;4616899;27;20046;-61
2023/10/11 04:19:49;;;;;;;2.58;1.70;;;;;;;21.64;46.48;100354.31;4615626;27;20091;-61
2023/10/11 04:22:12;;;;;;;2.28;1.50;;;;;;;21.64;46.50;100354.31;4618303;27;20031;-61
2023/10/11 04:24:23;;;;;;;2.88;1.65;;;;;;;21.58;46.40;100346.38;4614454;27;20031;-61
2023/10/11 04:26:36;;;;;;;2.78;1.60;;;;;;;21.65;46.53;100358.81;4615589;27;20798;-61
2023/10/11 04:28:47;;;;;;;2.95;1.88;;;;;;;21.64;46.36;100357.19;4618505;27;20042;-62
2023/10/11 04:31:27;;;;;;;2.92;1.80;;;;;;;21.64;46.37;100354.31;4616283;27;20407;-61
2023/10/11 04:33:29;;;;;;;2.60;1.58;;;;;;;21.61;46.43;100352.16;4616985;27;20874;-61
2023/10/11 04:35:43;;;;;;;2.88;1.52;;;;;;;21.63;45.96;100355.50;4616544;27;20042;-61
2023/10/11 04:37:54;;;;;;;2.90;1.77;;;;;;;21.65;46.00;100352.25;4617717;27;20146;-61
2023/10/11 04:40:34;;;;;;;2.88;1.50;;;;;;;21.63;46.41;100351.78;4618041;27;20530;-61
2023/10/11 04:42:45;;;;;;;2.30;1.48;;;;;;;21.65;45.81;100355.09;4618302;27;20028;-61
2023/10/11 04:44:56;;;;;;;2.30;1.60;;;;;;;21.51;46.36;100324.09;4616891;27;20927;-61
2023/10/11 04:47:07;;;;;;;3.13;1.58;;;;;;;21.64;46.10;100344.84;4616286;27;20039;-61
2023/10/11 04:49:18;;;;;;;2.38;1.70;;;;;;;21.64;46.21;100345.69;4617046;27;20058;-61
2023/10/11 04:51:38;;;;;;;2.90;1.70;;;;;;;21.63;46.02;100344.00;4616228;27;20031;-61
2023/10/11 04:53:54;;;;;;;2.15;1.70;;;;;;;21.57;45.87;100334.03;4617291;27;20030;-61
2023/10/11 04:56:51;;;;;;;3.53;1.77;;;;;;;21.62;46.07;100341.50;4617192;27;20031;-61
2023/10/11 05:00:54;;;;;;;2.92;1.80;;;;;;;21.63;45.62;100348.91;4617525;27;20419;-61
2023/10/11 05:03:04;;;;;;;2.50;1.60;;;;;;;21.65;45.46;100346.50;4619124;27;20581;-61
2023/10/11 05:05:19;;;;;;;2.20;1.50;;;;;;;21.60;45.59;100343.94;4611860;27;20035;-61
2023/10/11 05:07:29;;;;;;;2.58;1.50;;;;;;;21.63;45.68;100344.00;4616046;27;20038;-61
2023/10/11 05:09:40;;;;;;;2.72;1.60;;;;;;;21.64;45.32;100344.84;4617185;27;20501;-61
2023/10/11 05:11:53;;;;;;;2.13;1.60;;;;;;;21.63;45.00;100340.28;4618671;27;20118;-61
2023/10/11 05:16:37;;;;;;;2.13;1.65;;;;;;;21.61;45.37;100340.66;4613786;27;20031;-61
2023/10/11 05:18:48;;;;;;;2.22;1.50;;;;;;;21.59;45.62;100334.50;4615115;27;20035;-61
2023/10/11 05:21:00;;;;;;;2.78;1.50;;;;;;;21.56;45.53;100331.56;4615322;27;20039;-61
2023/10/11 05:23:13;;;;;;;2.20;1.70;;;;;;;21.63;45.44;100338.25;4615767;27;20028;-61
2023/10/11 05:28:27;;;;;;;2.75;1.60;;;;;;;21.62;45.25;100342.34;4615672;27;20763;-62
2023/10/11 05:30:29;;;;;;;2.25;1.42;;;;;;;21.53;45.24;100318.75;4611731;27;20142;-61
2023/10/11 05:32:48;;;;;;;2.55;1.65;;;;;;;21.63;45.16;100344.00;4615849;27;20819;-61
2023/10/11 05:58:04;;;;;;;2.85;2.00;;;;;;;21.62;45.43;100332.91;4614915;27;20863;-61
2023/10/11 06:04:05;;;;;;;1.88;1.50;;;;;;;21.60;45.44;100332.44;4614935;27;20043;-61
2023/10/11 06:06:42;;;;;;;3.80;1.60;;;;;;;21.57;45.71;100316.81;4615629;27;20055;-61
2023/10/11 06:08:56;;;;;;;2.75;1.60;;;;;;;21.60;45.28;100324.66;4613808;27;20023;-61
2023/10/11 06:11:08;;;;;;;3.05;1.67;;;;;;;21.57;45.58;100313.09;4615256;27;20041;-61
2023/10/11 06:13:18;;;;;;;4.05;1.88;;;;;;;21.60;45.48;100321.78;4615454;27;20150;-62
2023/10/11 06:15:29;;;;;;;2.90;1.52;;;;;;;21.60;45.54;100333.28;4616399;27;20448;-61
2023/10/11 06:17:42;;;;;;;2.78;1.77;;;;;;;21.58;45.52;100341.44;4616991;27;20023;-61
2023/10/11 06:19:54;;;;;;;2.20;1.50;;;;;;;21.57;45.20;100339.78;4615938;27;20039;-61
2023/10/11 06:22:10;;;;;;;3.60;1.70;;;;;;;21.59;45.55;100337.38;4615398;27;20597;-61
2023/10/11 06:24:22;;;;;;;1.85;1.50;;;;;;;21.55;45.32;100324.97;4616375;27;20062;-61
2023/10/11 06:28:45;;;;;;;2.67;1.60;;;;;;;21.58;45.51;100329.94;4615143;27;20055;-61
2023/10/11 06:31:00;;;;;;;2.00;1.42;;;;;;;21.53;45.49;100321.63;4615420;27;20162;-61
2023/10/11 06:33:12;;;;;;;2.78;1.52;;;;;;;21.60;45.41;100327.53;4614667;27;20776;-61
2023/10/11 06:35:25;;;;;;;2.70;1.60;;;;;;;21.58;45.42;100335.69;4615328;27;20873;-61
2023/10/11 06:37:36;;;;;;;2.00;1.50;;;;;;;21.56;45.61;100326.66;4614283;27;20035;-61
2023/10/11 06:41:57;;;;;;;2.45;1.50;;;;;;;21.56;45.77;100335.25;4614863;27;20069;-61
2023/10/11 06:44:08;;;;;;;2.05;1.50;;;;;;;21.57;45.37;100333.19;4614882;27;20027;-61
2023/10/11 06:46:19;;;;;;;2.53;1.50;;;;;;;21.58;45.60;100321.34;4602756;27;20400;-61
2023/10/11 06:48:29;;;;;;;2.55;1.45;;;;;;;21.56;45.54;100320.91;4617336;27;20066;-61
2023/10/11 06:50:40;;;;;;;3.08;1.70;;;;;;;21.58;45.54;100329.13;4616815;27;20131;-61
2023/10/11 06:52:51;;;;;;;2.35;1.52;;;;;;;21.56;45.29;100320.91;4618594;27;20138;-61
2023/10/11 06:57:24;;;;;;;2.75;1.50;;;;;;;21.57;45.59;100305.31;4617839;27;20122;-61
2023/10/11 06:59:34;;;;;;;2.10;1.50;;;;;;;21.57;45.23;100311.06;4618006;27;20119;-61
2023/10/11 07:01:45;;;;;;;2.55;1.55;;;;;;;21.55;45.54;100307.75;4618329;27;20049;-61
2023/10/11 07:03:57;;;;;;;2.15;1.35;;;;;;;21.51;45.40;100295.38;4618997;27;20114;-61
2023/10/11 07:06:10;;;;;;;2.40;1.48;;;;;;;21.53;45.42;100304.41;4618888;27;20035;-61
2023/10/11 07:08:21;;;;;;;2.40;1.42;;;;;;;21.54;45.38;100313.88;4617231;27;20042;-61
2023/10/11 07:10:32;;;;;;;2.10;1.30;;;;;;;21.55;45.46;100307.75;4617262;27;20514;-61
2023/10/11 07:12:43;;;;;;;3.35;1.42;;;;;;;21.56;45.17;100318.03;4616999;27;20039;-61
2023/10/11 07:14:54;;;;;;;2.00;1.50;;;;;;;21.57;45.31;100322.56;4615792;27;20036;-61
2023/10/11 07:17:08;;;;;;;2.17;1.65;;;;;;;21.57;45.14;100327.47;4615397;27;20079;-61
2023/10/11 07:19:19;;;;;;;1.90;1.40;;;;;;;21.54;45.33;100343.41;4616373;27;20047;-61
2023/10/11 07:26:56;;;;;;;2.15;1.50;;;;;;;21.56;45.40;100325.81;4602886;27;20051;-61
2023/10/11 07:29:08;;;;;;;2.38;1.50;;;;;;;21.57;45.70;100333.19;4617853;27;20054;-61
2023/10/11 07:31:19;;;;;;;2.75;1.40;;;;;;;21.55;45.92;100339.31;4617382;27;20035;-61
2023/10/11 07:33:31;;;;;;;2.45;1.42;;;;;;;21.56;46.02;100335.25;4616228;27;20829;-61
2023/10/11 07:35:46;;;;;;;2.00;1.33;;;;;;;21.57;45.85;100333.19;4618060;27;20846;-61
2023/10/11 07:37:57;;;;;;;2.05;1.30;;;;;;;21.56;45.85;100329.53;4616759;27;20039;-61
2023/10/11 07:40:09;;;;;;;2.72;1.58;;;;;;;21.55;46.01;100322.09;4618033;27;20507;-62
2023/10/11 07:42:25;;;;;;;1.95;1.35;;;;;;;21.50;45.91;100322.41;4618178;27;20034;-62
2023/10/11 07:44:37;;;;;;;2.10;1.50;;;;;;;21.52;45.91;100319.16;4618348;27;20030;-62
2023/10/11 07:46:54;;;;;;;2.85;1.60;;;;;;;21.54;46.19;100331.94;4617991;27;20035;-61
2023/10/11 07:49:05;;;;;;;2.33;1.45;;;;;;;21.50;46.44;100310.91;4615962;27;20039;-61
2023/10/11 07:51:16;;;;;;;2.60;1.58;;;;;;;21.50;46.57;100316.66;4614738;27;20422;-61
2023/10/11 07:53:26;;;;;;;2.25;1.50;;;;;;;21.54;46.67;100323.31;4617136;27;20621;-61
2023/10/11 07:55:38;;;;;;;2.38;1.42;;;;;;;21.56;46.33;100320.06;4617221;27;20564;-61
2023/10/11 07:57:49;;;;;;;2.58;1.50;;;;;;;21.53;46.55;100327.38;4617170;27;20044;-62
2023/10/11 08:00:00;;;;;;;1.83;1.30;;;;;;;21.51;46.29;100324.09;4616766;27;20070;-61
2023/10/11 08:02:26;;;;;;;2.53;1.40;;;;;;;21.55;46.28;100342.19;4617774;27;20023;-61
2023/10/11 08:04:47;;;;;;;2.78;1.50;;;;;;;21.51;46.32;100326.94;4617787;27;20035;-62
2023/10/11 08:07:03;;;;;;;2.05;1.55;;;;;;;21.53;46.44;100326.56;4615344;27;20051;-61
2023/10/11 08:09:19;;;;;;;2.63;1.45;;;;;;;21.52;46.56;100325.72;4615745;27;20846;-61
2023/10/11 08:14:02;;;;;;;3.22;1.63;;;;;;;21.54;46.97;100317.56;4618173;27;20027;-61
2023/10/11 08:16:17;;;;;;;2.28;1.50;;;;;;;21.55;46.71;100312.69;4616516;27;20075;-62
2023/10/11 08:18:28;;;;;;;2.60;1.30;;;;;;;21.53;46.67;100317.97;4617128;27;20035;-61
2023/10/11 08:20:38;;;;;;;2.60;1.73;;;;;;;21.54;46.67;100328.22;4617183;27;20027;-61
2023/10/11 08:22:49;;;;;;;2.53;1.42;;;;;;;21.53;46.63;100324.50;4616165;27;20432;-61
2023/10/11 08:25:01;;;;;;;2.40;1.30;;;;;;;21.54;46.93;100317.56;4616884;27;20019;-61
2023/10/11 08:27:13;;;;;;;2.95;1.50;;;;;;;21.53;46.55;100320.81;4615166;27;20118;-61
2023/10/11 08:29:29;;;;;;;1.77;1.40;;;;;;;21.55;46.80;100329.91;4616145;27;20039;-61
2023/10/11 08:31:40;;;;;;;1.70;1.40;;;;;;;21.54;46.74;100323.31;4616989;27;20027;-61
2023/10/11 08:33:50;;;;;;;1.70;1.40;;;;;;;21.53;47.06;100326.56;4616030;27;20031;-61
2023/10/11 08:36:02;;;;;;;2.20;1.33;;;;;;;21.49;47.32;100319.91;4604360;27;20728;-62
2023/10/11 08:38:16;;;;;;;3.10;1.60;;;;;;;21.54;46.49;100323.31;4616560;27;20103;-61
2023/10/11 08:40:34;;;;;;;2.17;1.35;;;;;;;21.54;47.16;100334.81;4614843;27;20074;-62
2023/10/11 08:42:52;;;;;;;2.15;1.40;;;;;;;21.53;46.95;100330.25;4616385;27;20824;-61
2023/10/11 08:45:03;;;;;;;1.95;1.33;;;;;;;21.52;46.90;100340.09;4617332;27;20023;-61
2023/10/11 08:47:15;;;;;;;2.33;1.50;;;;;;;21.53;47.10;100338.88;4604734;27;20069;-62
2023/10/11 08:49:26;;;;;;;2.15;1.40;;;;;;;21.53;47.09;100336.00;4615804;27;20047;-61
2023/10/11 08:51:41;;;;;;;2.63;1.40;;;;;;;21.53;46.77;100344.63;4616014;27;20114;-62
2023/10/11 08:53:54;;;;;;;3.03;1.67;;;;;;;21.52;47.00;100342.97;4617481;27;20023;-61
2023/10/11 08:56:05;;;;;;;1.88;1.40;;;;;;;21.48;47.49;100342.06;4616287;27;20064;-62
2023/10/11 08:58:27;;;;;;;2.15;1.50;;;;;;;21.54;47.07;100352.03;4615038;27;20031;-61
2023/10/11 09:00:39;;;;;;;2.30;1.40;;;;;;;21.51;47.21;100347.06;4606434;27;20036;-61
2023/10/11 09:02:52;;;;;;;3.17;1.50;;;;;;;21.53;47.17;100356.09;4617402;27;20039;-62
2023/10/11 09:05:07;;;;;;;2.63;1.35;;;;;;;21.52;47.62;100353.59;4615799;27;20027;-62
2023/10/11 09:07:36;;;;;;;2.38;1.40;;;;;;;21.51;46.66;100334.72;4615764;27;20636;-61
2023/10/11 09:09:50;;;;;;;1.73;1.20;;;;;;;21.49;46.75;100328.53;4620894;27;20841;-61
2023/10/11 09:12:20;;;;;;;2.13;1.42;;;;;;;21.53;46.36;100343.81;4617159;27;20653;-62
2023/10/11 09:14:30;;;;;;;3.17;1.40;;;;;;;21.51;47.10;100334.72;4616385;27;20038;-61
2023/10/11 09:16:41;;;;;;;1.67;1.40;;;;;;;21.51;46.33;100341.31;4595929;27;20074;-61
2023/10/11 09:19:06;;;;;;;2.35;1.40;;;;;;;21.54;46.68;100356.94;4632454;27;20102;-62
2023/10/11 09:21:17;;;;;;;2.13;1.38;;;;;;;21.50;46.87;100348.25;4615937;27;20104;-61
2023/10/11 09:23:36;;;;;;;2.88;1.48;;;;;;;21.53;47.39;100353.22;4613935;27;20035;-61
2023/10/11 09:26:00;;;;;;;2.50;1.50;;;;;;;21.52;47.13;100345.00;4615664;27;20039;-61
2023/10/11 09:28:16;;;;;;;2.20;1.38;;;;;;;21.51;46.86;100338.44;4616345;27;20038;-61
2023/10/11 09:30:27;;;;;;;2.15;1.40;;;;;;;21.52;46.91;100342.97;4617964;27;20035;-61
2023/10/11 09:32:37;;;;;;;2.28;1.30;;;;;;;21.53;47.13;100338.88;4627641;27;20035;-61
2023/10/11 09:34:51;;;;;;;2.20;1.30;;;;;;;21.54;46.84;100340.56;4603881;27;20031;-61
2023/10/11 09:37:02;;;;;;;2.22;1.40;;;;;;;21.51;46.51;100343.34;4614881;27;20184;-61
2023/10/11 09:39:16;;;;;;;2.35;1.60;;;;;;;21.46;46.78;100333.00;4615977;27;20038;-61
2023/10/11 09:41:38;;;;;;;2.50;1.30;;;;;;;21.52;46.87;100348.72;4615590;27;20707;-61
2023/10/11 09:43:49;;;;;;;2.03;1.38;;;;;;;21.52;47.26;100340.09;4615910;27;20039;-61
2023/10/11 09:46:00;;;;;;;2.15;1.63;;;;;;;21.53;47.29;100344.63;4616155;27;20035;-61
2023/10/11 09:48:17;;;;;;;2.70;1.40;;;;;;;21.52;47.92;100342.97;4617789;27;20039;-61
2023/10/11 09:50:27;;;;;;;2.45;1.48;;;;;;;21.50;47.34;100335.94;4615068;27;20035;-61
2023/10/11 10:20:02;;;;;;;1.77;1.40;;;;;;;21.54;47.36;100340.56;4615759;27;20039;-61
2023/10/11 10:23:04;;;;;;;1.95;1.40;;;;;;;21.54;47.32;100333.97;4614433;27;20043;-61
2023/10/11 10:29:07;;;;;;;1.67;1.30;;;;;;;21.54;47.37;100320.44;4617768;27;21242;-61
2023/10/11 11:22:12;;;;;;;2.50;1.65;;;;;;;21.54;48.37;100303.22;4613595;27;20140;-61
2023/10/11 11:24:34;;;;;;;3.45;1.63;;;;;;;21.49;48.21;100294.91;4616101;27;20081;-62
2023/10/11 11:26:45;;;;;;;3.25;1.40;;;;;;;21.53;50.13;100304.41;4617102;27;20774;-62
2023/10/11 11:29:08;;;;;;;2.55;1.67;;;;;;;21.44;48.74;100286.59;4616127;27;20031;-61
2023/10/11 11:35:02;;;;;;;2.72;1.67;;;;;;;21.56;48.24;100303.69;4614955;27;20102;-61
2023/10/11 11:37:20;;;;;;;2.45;1.40;;;;;;;21.56;48.58;100294.22;4597921;27;20050;-61
2023/10/11 11:39:39;;;;;;;2.45;1.50;;;;;;;21.52;48.94;100284.69;4615977;27;20027;-61
2023/10/11 11:41:53;;;;;;;2.15;1.40;;;;;;;21.52;48.44;100276.06;4621037;27;20035;-61
2023/10/11 11:44:04;;;;;;;2.63;1.65;;;;;;;21.53;48.31;100287.19;4614365;27;20034;-62
2023/10/11 11:46:15;;;;;;;2.38;1.50;;;;;;;21.56;48.48;100277.81;4614787;27;20046;-61
2023/10/11 11:48:26;;;;;;;2.78;1.35;;;;;;;21.49;47.92;100268.22;4615542;27;20031;-62
2023/10/11 11:50:38;;;;;;;3.03;1.70;;;;;;;21.50;48.40;100282.19;4615463;27;20419;-62
2023/10/11 11:52:50;;;;;;;2.10;1.60;;;;;;;21.52;48.38;100274.03;4616057;27;20031;-61
2023/10/11 11:55:00;;;;;;;3.63;1.50;;;;;;;21.54;47.92;100274.50;4614489;27;20062;-61
2023/10/11 11:57:11;;;;;;;5.18;1.60;;;;;;;21.57;48.58;100287.25;4612039;27;20063;-61
2023/10/11 11:59:23;;;;;;;3.00;1.60;;;;;;;21.56;48.59;100280.69;4614266;27;20072;-61
2023/10/11 12:01:35;;;;;;;4.95;1.48;;;;;;;21.51;49.24;100274.44;4613670;27;20847;-61
2023/10/11 12:03:53;;;;;;;3.40;1.50;;;;;;;21.58;48.65;100286.88;4614092;27;20030;-61
2023/10/11 12:06:21;;;;;;;2.53;1.80;;;;;;;21.54;49.04;100277.38;4611537;27;20678;-62
2023/10/11 12:08:32;;;;;;;;;;;;;;;21.59;48.72;100276.22;4616363;27;20031;-62
2023/10/11 12:10:47;;;;;;;2.90;1.70;;;;;;;21.58;49.44;100283.19;4615090;27;19915;-61
2023/10/11 12:13:05;;;;;;;3.25;1.60;;;;;;;21.53;49.24;100272.00;4614834;27;20631;-61
2023/10/11 12:15:16;;;;;;;2.90;1.60;;;;;;;21.56;49.46;100265.50;4575798;27;1075515;-61
2023/10/11 12:17:26;;;;;;;2.92;1.50;;;;;;;21.57;49.52;100270.84;4613970;27;20036;-62
2023/10/11 12:19:43;;;;;;;4.28;1.70;;;;;;;21.60;49.99;100269.25;4615778;27;20031;-61
2023/10/11 12:21:57;;;;;;;2.75;1.50;;;;;;;21.57;49.94;100250.75;4614570;27;20550;-61
2023/10/11 12:24:11;;;;;;;3.97;1.80;;;;;;;21.58;49.92;100261.03;4615353;27;20030;-62
2023/10/11 12:26:22;;;;;;;3.60;1.50;;;;;;;21.60;50.38;100263.50;4614786;27;20694;-62
2023/10/11 12:28:37;;;;;;;3.28;1.52;;;;;;;21.56;50.05;100259.75;4615078;27;20042;-62
2023/10/11 12:30:48;;;;;;;2.60;1.40;;;;;;;21.56;49.78;100257.72;4616742;27;20027;-61
2023/10/11 12:33:06;;;;;;;4.85;1.60;;;;;;;21.58;50.87;100269.63;4616418;27;20058;-62
2023/10/11 12:35:17;;;;;;;2.35;1.52;;;;;;;21.60;51.06;100272.13;4614618;27;20031;-61
2023/10/11 12:37:27;;;;;;;3.92;1.50;;;;;;;21.59;50.73;100277.06;4615076;27;20601;-63
2023/10/11 12:39:37;;;;;;;2.13;1.30;;;;;;;21.60;51.54;100267.22;4615233;27;20453;-62